Warren, New Hampshire
Current Conditions -  °F | °C
As of 6:35 PM on Wednesday 17 Dec 2014 (Local Time) from K1P1 Reporting Station
Overcast Overcast  
Wind Chill: 31°   Ceiling: 7500
Heat Index: 38°   Visibility: 10mi
Dew Point: 38°   Wind: 9mph
Humidity: 100%   Direction: 300°WNW
Pressure: 29.71"   Gusts: NA
Location:  43.92°N, 71.89°W
Report Text: K1P1 172335Z AUTO 30008KT 10SM SCT060 OVC075 03/03 A2971 RMK AO2 T00310031
Loading
Personal Weather Stations






























Interactive Weather Map New forecast layout! Learn more

10-Day Weather Forecast

Advertisements
Track Severe Weather on mobile